createdAt,value
2022-09-12T00:03:46.483Z,12.82
2022-09-12T00:09:05.951Z,12.81
2022-09-12T00:14:25.274Z,12.81
2022-09-12T00:25:03.698Z,12.81
2022-09-12T00:30:23.123Z,12.81
2022-09-12T00:35:42.600Z,12.81
2022-09-12T00:41:01.801Z,12.8
2022-09-12T00:46:20.888Z,12.8
2022-09-12T00:51:40.616Z,12.81
2022-09-12T00:57:00.150Z,12.8
2022-09-12T01:02:19.378Z,12.8
2022-09-12T01:16:11.558Z,12.79
2022-09-12T01:18:16.933Z,12.79
2022-09-12T01:23:36.621Z,12.79
2022-09-12T01:28:55.962Z,12.79
2022-09-12T01:33:12.586Z,12.75
2022-09-12T01:37:45.232Z,12.78
2022-09-12T01:46:18.326Z,12.78
2022-09-12T01:50:52.001Z,12.78
2022-09-12T01:59:25.072Z,12.77
2022-09-12T02:01:29.953Z,12.78
2022-09-12T02:06:49.060Z,12.78
2022-09-12T02:17:27.077Z,12.77
2022-09-12T02:22:45.909Z,12.78
2022-09-12T02:31:18.971Z,12.76
2022-09-12T02:35:35.522Z,12.76
2022-09-12T02:39:52.065Z,12.76
2022-09-12T02:44:04.535Z,12.77
2022-09-12T02:49:23.557Z,12.76
2022-09-12T02:54:42.505Z,12.76
2022-09-12T03:00:02.052Z,12.76
2022-09-12T03:05:20.939Z,12.76
2022-09-12T03:10:40.201Z,12.75
2022-09-12T03:15:59.438Z,12.75
2022-09-12T03:21:18.437Z,12.75
2022-09-12T03:26:37.683Z,12.74
2022-09-12T03:39:27.299Z,12.74
2022-09-12T03:43:43.816Z,12.73
2022-09-12T03:47:54.321Z,12.73
2022-09-12T03:53:17.001Z,12.73
2022-09-12T03:58:33.215Z,12.73
2022-09-12T04:03:52.405Z,12.73
2022-09-12T04:09:11.726Z,12.73
2022-09-12T04:14:31.288Z,12.72
2022-09-12T04:23:04.341Z,12.71
2022-09-12T04:25:09.114Z,12.71
2022-09-12T04:30:28.833Z,12.72
2022-09-12T04:35:47.821Z,12.71
2022-09-12T04:41:06.747Z,12.71
2022-09-12T04:46:26.323Z,12.7
2022-09-12T04:51:46.029Z,12.7
2022-09-12T04:57:05.023Z,12.7
2022-09-12T05:02:24.051Z,12.69
2022-09-12T05:07:43.551Z,12.69
2022-09-12T05:20:33.157Z,12.68
2022-09-12T05:24:50.643Z,12.7
2022-09-12T05:34:19.308Z,12.73
2022-09-12T05:39:39.002Z,12.74
2022-09-12T05:45:09.184Z,12.76
2022-09-12T05:50:17.822Z,12.8
2022-09-12T05:55:37.063Z,12.84
2022-09-12T06:06:16.312Z,12.92
2022-09-12T06:11:35.758Z,12.98
2022-09-12T06:16:55.100Z,13.08
2022-09-12T06:22:14.648Z,13.2
2022-09-12T06:27:34.014Z,13.31
2022-09-12T06:32:52.996Z,13.39
2022-09-12T06:38:12.438Z,13.45
2022-09-12T06:43:41.756Z,13.49
2022-09-12T06:48:50.812Z,13.52
2022-09-12T06:54:09.647Z,13.56
2022-09-12T06:59:29.101Z,13.57
2022-09-12T07:04:47.932Z,13.6
2022-09-12T07:10:06.779Z,13.64
2022-09-12T07:15:25.796Z,13.71
2022-09-12T07:26:04.055Z,13.77
2022-09-12T07:31:22.728Z,13.9
2022-09-12T07:36:42.443Z,14.02
2022-09-12T07:42:01.343Z,14.12
2022-09-12T07:47:20.592Z,14.36
2022-09-12T07:52:39.765Z,14.34
2022-09-12T08:01:12.881Z,14.36
2022-09-12T08:05:29.373Z,14.36
2022-09-12T08:09:45.896Z,14.35
2022-09-12T08:14:02.430Z,14.36
2022-09-12T08:24:34.989Z,14.39
2022-09-12T08:33:08.043Z,14.4
2022-09-12T08:45:51.343Z,14.39
2022-09-12T08:54:24.377Z,14.4
2022-09-12T09:02:57.476Z,14.38
2022-09-12T09:12:27.128Z,14.39
2022-09-12T09:17:46.671Z,14.41
2022-09-12T09:23:06.222Z,14.46
2022-09-12T09:28:24.993Z,14.38
2022-09-12T09:36:58.037Z,14.4
2022-09-12T09:39:02.428Z,14.39
2022-09-12T09:49:41.121Z,14.4
2022-09-12T09:55:00.067Z,14.39
2022-09-12T10:08:52.036Z,14.4
2022-09-12T10:10:57.159Z,14.4
2022-09-12T10:21:34.692Z,14.4
2022-09-12T10:26:56.696Z,14.4
2022-09-12T10:35:26.883Z,14.39
2022-09-12T10:39:43.428Z,14.4
2022-09-12T10:53:33.714Z,14.39
2022-09-12T10:58:48.811Z,14.4
2022-09-12T11:04:07.918Z,14.41
2022-09-12T11:09:27.256Z,14.4
2022-09-12T11:14:46.298Z,14.39
2022-09-12T11:20:05.855Z,14.44
2022-09-12T11:25:24.748Z,14.4
2022-09-12T11:30:43.898Z,14.39
2022-09-12T11:36:02.825Z,14.39
2022-09-12T11:46:40.890Z,14.43
2022-09-12T11:55:13.951Z,14.39
2022-09-12T11:59:30.468Z,14.39
2022-09-12T12:03:47.131Z,14.42
2022-09-12T12:07:58.296Z,14.4
2022-09-12T12:13:17.779Z,14.39
2022-09-12T12:18:36.849Z,14.4
2022-09-12T12:23:56.072Z,14.4
2022-09-12T12:29:14.887Z,14.4
2022-09-12T12:34:34.507Z,14.4
2022-09-12T12:43:07.549Z,14.4
2022-09-12T12:45:12.948Z,14.4
2022-09-12T12:50:31.842Z,14.4
2022-09-12T12:55:50.509Z,14.39
2022-09-12T13:01:10.159Z,14.4
2022-09-12T13:06:28.739Z,14.39
2022-09-12T13:11:47.850Z,14.4
2022-09-12T13:17:07.301Z,14.39
2022-09-12T13:25:40.338Z,14.39
2022-09-12T13:27:45.593Z,14.39
2022-09-12T13:33:05.196Z,14.4
2022-09-12T13:38:24.467Z,14.4
2022-09-12T13:43:44.039Z,14.4
2022-09-12T13:54:24.521Z,14.4
2022-09-12T13:59:41.589Z,14.39
2022-09-12T14:05:00.497Z,14.39
2022-09-12T14:10:19.198Z,14.41
2022-09-12T14:15:38.510Z,14.39
2022-09-12T14:20:57.965Z,14.39
2022-09-12T14:26:17.694Z,14.4
2022-09-12T14:31:36.613Z,14.4
2022-09-12T14:36:55.398Z,14.39
2022-09-12T14:47:46.051Z,14.39
2022-09-12T14:52:53.637Z,14.4
2022-09-12T14:58:12.901Z,14.43
2022-09-12T15:06:45.966Z,14.4
2022-09-12T15:08:51.787Z,14.38
2022-09-12T15:14:11.030Z,14.39
2022-09-12T15:19:30.413Z,14.4
2022-09-12T15:30:08.936Z,14.4
2022-09-12T15:35:27.901Z,14.4
2022-09-12T15:40:47.041Z,14.4
2022-09-12T15:46:06.169Z,14.39
2022-09-12T15:51:25.105Z,14.4
2022-09-12T15:56:44.281Z,14.41
2022-09-12T16:02:03.390Z,14.4
2022-09-12T16:07:22.373Z,14.4
2022-09-12T16:12:41.133Z,14.39
2022-09-12T16:18:00.374Z,14.4
2022-09-12T16:23:19.551Z,14.4
2022-09-12T16:28:38.927Z,14.39
2022-09-12T16:33:58.568Z,14.4
2022-09-12T16:39:17.491Z,14.39
2022-09-12T16:44:36.913Z,14.4
2022-09-12T16:49:56.451Z,14.39
2022-09-12T16:55:15.095Z,14.38
2022-09-12T17:00:34.638Z,14.38
2022-09-12T17:05:53.968Z,14.38
2022-09-12T17:11:13.522Z,14.38
2022-09-12T17:16:32.943Z,13.61
2022-09-12T17:21:52.202Z,13.48
2022-09-12T17:30:25.300Z,13.35
2022-09-12T17:32:30.752Z,13.22
2022-09-12T17:43:08.909Z,13
2022-09-12T17:48:27.692Z,12.92
2022-09-12T17:53:47.330Z,12.86
2022-09-12T17:59:06.683Z,12.83
2022-09-12T18:04:25.659Z,12.82
2022-09-12T18:09:44.485Z,12.82
2022-09-12T18:15:03.852Z,12.84
2022-09-12T18:25:42.722Z,12.86
2022-09-12T18:31:01.662Z,12.86
2022-09-12T18:36:20.333Z,12.86
2022-09-12T18:41:39.093Z,12.87
2022-09-12T18:46:58.186Z,12.86
2022-09-12T18:52:19.048Z,12.87
2022-09-12T18:57:37.333Z,12.87
2022-09-12T19:08:15.017Z,12.87
2022-09-12T19:24:12.234Z,12.86
2022-09-12T19:29:31.611Z,12.87
2022-09-12T19:34:50.463Z,12.86
2022-09-12T19:40:10.230Z,12.87
2022-09-12T19:50:48.939Z,12.86
2022-09-12T19:59:49.977Z,12.84
2022-09-12T20:05:08.801Z,12.86
2022-09-12T20:10:28.274Z,12.86
2022-09-12T20:15:47.648Z,12.86
2022-09-12T20:21:06.621Z,12.85
2022-09-12T20:26:26.013Z,12.86
2022-09-12T20:31:45.266Z,12.86
2022-09-12T20:37:04.520Z,12.85
2022-09-12T20:42:23.358Z,12.85
2022-09-12T20:47:42.477Z,12.85
2022-09-12T20:53:02.082Z,12.85
2022-09-12T20:58:21.403Z,12.84
2022-09-12T21:03:40.824Z,12.85
2022-09-12T21:09:00.235Z,12.84
2022-09-12T21:14:19.045Z,12.84
2022-09-12T21:19:38.768Z,12.84
2022-09-12T21:24:57.862Z,12.84
2022-09-12T21:30:16.777Z,12.84
2022-09-12T21:35:35.908Z,12.84
2022-09-12T21:40:55.067Z,12.84
2022-09-12T21:46:13.925Z,12.84
2022-09-12T22:00:06.361Z,12.82
2022-09-12T22:04:22.877Z,12.82
2022-09-12T22:08:39.401Z,12.83
2022-09-12T22:12:49.222Z,12.82
2022-09-12T22:18:08.143Z,12.82
2022-09-12T22:23:27.528Z,12.82
2022-09-12T22:28:47.546Z,12.82
2022-09-12T22:34:06.398Z,12.82
2022-09-12T22:39:26.041Z,12.82
2022-09-12T22:44:45.466Z,12.82
2022-09-12T22:50:04.600Z,12.82
2022-09-12T22:55:24.186Z,12.82
2022-09-12T23:03:57.243Z,12.8
2022-09-12T23:12:30.305Z,12.81
2022-09-12T23:16:46.878Z,12.81
2022-09-12T23:21:59.122Z,12.81
2022-09-12T23:27:18.335Z,12.81
2022-09-12T23:41:11.148Z,12.79
2022-09-12T23:43:16.273Z,12.81
2022-09-12T23:48:35.152Z,12.81
2022-09-12T23:53:54.616Z,12.8
2022-09-12T23:59:13.554Z,12.8
